sensor_id;sensor_type;location;lat;lon;timestamp;P1;durP1;ratioP1;P2;durP2;ratioP2
78581;SDS011;67878;46.242;5.974;2023-07-30T00:02:20;3.90;;;2.20;;
78581;SDS011;67878;46.242;5.974;2023-07-30T00:04:46;2.10;;;1.90;;
78581;SDS011;67878;46.242;5.974;2023-07-30T00:07:11;2.97;;;2.08;;
78581;SDS011;67878;46.242;5.974;2023-07-30T00:09:37;3.05;;;2.10;;
78581;SDS011;67878;46.242;5.974;2023-07-30T00:12:04;2.38;;;1.70;;
78581;SDS011;67878;46.242;5.974;2023-07-30T00:14:30;2.20;;;2.00;;
78581;SDS011;67878;46.242;5.974;2023-07-30T00:16:56;3.25;;;2.30;;
78581;SDS011;67878;46.242;5.974;2023-07-30T00:19:21;2.85;;;2.10;;
78581;SDS011;67878;46.242;5.974;2023-07-30T00:21:47;2.80;;;2.13;;
78581;SDS011;67878;46.242;5.974;2023-07-30T00:24:13;2.22;;;1.83;;
78581;SDS011;67878;46.242;5.974;2023-07-30T00:26:39;2.33;;;1.80;;
78581;SDS011;67878;46.242;5.974;2023-07-30T00:29:05;2.65;;;2.00;;
78581;SDS011;67878;46.242;5.974;2023-07-30T00:31:30;2.65;;;1.90;;
78581;SDS011;67878;46.242;5.974;2023-07-30T00:33:56;2.85;;;1.67;;
78581;SDS011;67878;46.242;5.974;2023-07-30T00:36:21;2.42;;;1.92;;
78581;SDS011;67878;46.242;5.974;2023-07-30T00:38:46;2.55;;;1.83;;
78581;SDS011;67878;46.242;5.974;2023-07-30T00:41:12;2.75;;;2.00;;
78581;SDS011;67878;46.242;5.974;2023-07-30T00:43:39;2.53;;;1.92;;
78581;SDS011;67878;46.242;5.974;2023-07-30T00:46:05;2.22;;;1.70;;
78581;SDS011;67878;46.242;5.974;2023-07-30T00:48:32;2.40;;;2.10;;
78581;SDS011;67878;46.242;5.974;2023-07-30T00:50:58;2.33;;;1.98;;
78581;SDS011;67878;46.242;5.974;2023-07-30T01:04:10;2.33;;;2.08;;
78581;SDS011;67878;46.242;5.974;2023-07-30T01:10:13;2.80;;;1.98;;
78581;SDS011;67878;46.242;5.974;2023-07-30T01:12:40;4.25;;;1.92;;
78581;SDS011;67878;46.242;5.974;2023-07-30T01:15:07;2.38;;;1.90;;
78581;SDS011;67878;46.242;5.974;2023-07-30T01:17:33;3.33;;;1.90;;
78581;SDS011;67878;46.242;5.974;2023-07-30T01:19:59;2.63;;;2.03;;
78581;SDS011;67878;46.242;5.974;2023-07-30T01:22:24;2.10;;;1.80;;
78581;SDS011;67878;46.242;5.974;2023-07-30T01:24:49;2.58;;;2.17;;
78581;SDS011;67878;46.242;5.974;2023-07-30T01:27:31;3.20;;;2.00;;
78581;SDS011;67878;46.242;5.974;2023-07-30T01:30:08;2.33;;;2.08;;
78581;SDS011;67878;46.242;5.974;2023-07-30T01:32:35;2.97;;;2.10;;
78581;SDS011;67878;46.242;5.974;2023-07-30T01:35:01;2.13;;;1.92;;
78581;SDS011;67878;46.242;5.974;2023-07-30T01:37:27;2.63;;;1.98;;
78581;SDS011;67878;46.242;5.974;2023-07-30T01:39:54;2.70;;;2.03;;
78581;SDS011;67878;46.242;5.974;2023-07-30T01:42:20;2.53;;;1.95;;
78581;SDS011;67878;46.242;5.974;2023-07-30T01:44:45;2.50;;;1.83;;
78581;SDS011;67878;46.242;5.974;2023-07-30T01:47:11;2.58;;;1.85;;
78581;SDS011;67878;46.242;5.974;2023-07-30T01:49:36;2.42;;;2.03;;
78581;SDS011;67878;46.242;5.974;2023-07-30T01:52:01;2.40;;;1.92;;
78581;SDS011;67878;46.242;5.974;2023-07-30T01:54:27;3.65;;;2.20;;
78581;SDS011;67878;46.242;5.974;2023-07-30T01:56:53;2.42;;;2.22;;
78581;SDS011;67878;46.242;5.974;2023-07-30T01:59:19;2.63;;;2.25;;
78581;SDS011;67878;46.242;5.974;2023-07-30T02:01:44;2.42;;;1.73;;
78581;SDS011;67878;46.242;5.974;2023-07-30T02:04:10;2.63;;;2.00;;
78581;SDS011;67878;46.242;5.974;2023-07-30T02:06:35;3.67;;;2.38;;
78581;SDS011;67878;46.242;5.974;2023-07-30T02:09:00;2.60;;;1.95;;
78581;SDS011;67878;46.242;5.974;2023-07-30T02:11:26;2.67;;;1.98;;
78581;SDS011;67878;46.242;5.974;2023-07-30T02:13:51;3.75;;;2.00;;
78581;SDS011;67878;46.242;5.974;2023-07-30T02:16:17;1.80;;;1.67;;
78581;SDS011;67878;46.242;5.974;2023-07-30T02:18:42;2.25;;;2.05;;
78581;SDS011;67878;46.242;5.974;2023-07-30T02:21:08;1.98;;;1.77;;
78581;SDS011;67878;46.242;5.974;2023-07-30T02:23:33;2.30;;;1.83;;
78581;SDS011;67878;46.242;5.974;2023-07-30T02:25:58;3.30;;;1.92;;
78581;SDS011;67878;46.242;5.974;2023-07-30T02:28:24;2.42;;;2.08;;
78581;SDS011;67878;46.242;5.974;2023-07-30T02:30:49;2.85;;;2.00;;
78581;SDS011;67878;46.242;5.974;2023-07-30T02:33:14;1.98;;;1.73;;
78581;SDS011;67878;46.242;5.974;2023-07-30T02:35:40;2.28;;;1.90;;
78581;SDS011;67878;46.242;5.974;2023-07-30T02:38:05;2.03;;;1.80;;
78581;SDS011;67878;46.242;5.974;2023-07-30T02:40:31;2.38;;;1.67;;
78581;SDS011;67878;46.242;5.974;2023-07-30T02:42:56;2.28;;;1.88;;
78581;SDS011;67878;46.242;5.974;2023-07-30T02:45:22;2.20;;;2.00;;
78581;SDS011;67878;46.242;5.974;2023-07-30T02:47:47;2.53;;;1.98;;
78581;SDS011;67878;46.242;5.974;2023-07-30T02:50:13;2.55;;;1.88;;
78581;SDS011;67878;46.242;5.974;2023-07-30T02:52:38;2.40;;;1.80;;
78581;SDS011;67878;46.242;5.974;2023-07-30T02:55:04;2.95;;;2.05;;
78581;SDS011;67878;46.242;5.974;2023-07-30T02:57:29;2.38;;;1.83;;
78581;SDS011;67878;46.242;5.974;2023-07-30T02:59:55;2.63;;;2.00;;
78581;SDS011;67878;46.242;5.974;2023-07-30T03:02:20;2.38;;;1.98;;
78581;SDS011;67878;46.242;5.974;2023-07-30T03:04:45;2.47;;;1.95;;
78581;SDS011;67878;46.242;5.974;2023-07-30T03:07:11;2.13;;;1.83;;
78581;SDS011;67878;46.242;5.974;2023-07-30T03:09:37;2.22;;;1.67;;
78581;SDS011;67878;46.242;5.974;2023-07-30T03:12:02;2.20;;;1.70;;
78581;SDS011;67878;46.242;5.974;2023-07-30T03:14:28;2.13;;;1.63;;
78581;SDS011;67878;46.242;5.974;2023-07-30T03:16:54;2.00;;;1.77;;
78581;SDS011;67878;46.242;5.974;2023-07-30T03:19:19;1.77;;;1.60;;
78581;SDS011;67878;46.242;5.974;2023-07-30T03:21:45;1.95;;;1.73;;
78581;SDS011;67878;46.242;5.974;2023-07-30T03:24:10;2.08;;;1.80;;
78581;SDS011;67878;46.242;5.974;2023-07-30T03:26:35;1.98;;;1.73;;
78581;SDS011;67878;46.242;5.974;2023-07-30T03:29:01;2.55;;;1.67;;
78581;SDS011;67878;46.242;5.974;2023-07-30T03:31:26;2.67;;;1.80;;
78581;SDS011;67878;46.242;5.974;2023-07-30T03:33:53;1.92;;;1.58;;
78581;SDS011;67878;46.242;5.974;2023-07-30T03:36:19;2.13;;;1.65;;
78581;SDS011;67878;46.242;5.974;2023-07-30T03:38:44;2.03;;;1.70;;
78581;SDS011;67878;46.242;5.974;2023-07-30T03:41:10;1.92;;;1.73;;
78581;SDS011;67878;46.242;5.974;2023-07-30T03:43:36;1.80;;;1.67;;
78581;SDS011;67878;46.242;5.974;2023-07-30T03:46:01;4.88;;;2.20;;
78581;SDS011;67878;46.242;5.974;2023-07-30T03:48:27;3.78;;;1.90;;
78581;SDS011;67878;46.242;5.974;2023-07-30T03:50:53;2.10;;;1.70;;
78581;SDS011;67878;46.242;5.974;2023-07-30T03:53:18;2.42;;;1.90;;
78581;SDS011;67878;46.242;5.974;2023-07-30T03:55:44;1.95;;;1.50;;
78581;SDS011;67878;46.242;5.974;2023-07-30T03:58:09;1.83;;;1.63;;
78581;SDS011;67878;46.242;5.974;2023-07-30T04:00:34;2.85;;;1.58;;
78581;SDS011;67878;46.242;5.974;2023-07-30T04:03:00;3.35;;;1.63;;
78581;SDS011;67878;46.242;5.974;2023-07-30T04:05:25;1.73;;;1.60;;
78581;SDS011;67878;46.242;5.974;2023-07-30T04:07:51;2.13;;;1.60;;
78581;SDS011;67878;46.242;5.974;2023-07-30T04:10:16;1.95;;;1.73;;
78581;SDS011;67878;46.242;5.974;2023-07-30T04:12:41;2.10;;;1.73;;
78581;SDS011;67878;46.242;5.974;2023-07-30T04:15:07;2.20;;;1.70;;
78581;SDS011;67878;46.242;5.974;2023-07-30T04:17:34;1.75;;;1.40;;
78581;SDS011;67878;46.242;5.974;2023-07-30T04:20:01;2.13;;;1.88;;
78581;SDS011;67878;46.242;5.974;2023-07-30T04:22:27;1.75;;;1.60;;
78581;SDS011;67878;46.242;5.974;2023-07-30T04:24:52;2.20;;;1.73;;
78581;SDS011;67878;46.242;5.974;2023-07-30T04:27:17;5.07;;;1.50;;
78581;SDS011;67878;46.242;5.974;2023-07-30T04:29:44;2.28;;;1.83;;
78581;SDS011;67878;46.242;5.974;2023-07-30T04:32:09;1.77;;;1.63;;
78581;SDS011;67878;46.242;5.974;2023-07-30T04:34:34;1.88;;;1.55;;
78581;SDS011;67878;46.242;5.974;2023-07-30T04:37:00;3.97;;;1.70;;
78581;SDS011;67878;46.242;5.974;2023-07-30T04:39:27;3.35;;;1.70;;
78581;SDS011;67878;46.242;5.974;2023-07-30T04:41:52;2.17;;;1.98;;
78581;SDS011;67878;46.242;5.974;2023-07-30T04:44:17;3.28;;;1.73;;
78581;SDS011;67878;46.242;5.974;2023-07-30T04:46:43;3.83;;;2.05;;
78581;SDS011;67878;46.242;5.974;2023-07-30T04:49:08;2.60;;;1.65;;
78581;SDS011;67878;46.242;5.974;2023-07-30T04:51:34;2.13;;;1.70;;
78581;SDS011;67878;46.242;5.974;2023-07-30T04:53:59;1.95;;;1.75;;
78581;SDS011;67878;46.242;5.974;2023-07-30T04:56:24;2.20;;;1.70;;
78581;SDS011;67878;46.242;5.974;2023-07-30T04:58:51;2.28;;;1.88;;
78581;SDS011;67878;46.242;5.974;2023-07-30T05:01:17;1.80;;;1.60;;
78581;SDS011;67878;46.242;5.974;2023-07-30T05:03:42;2.50;;;1.67;;
78581;SDS011;67878;46.242;5.974;2023-07-30T05:06:07;2.60;;;1.95;;
78581;SDS011;67878;46.242;5.974;2023-07-30T05:08:33;4.13;;;1.83;;
78581;SDS011;67878;46.242;5.974;2023-07-30T05:10:58;2.38;;;1.90;;
78581;SDS011;67878;46.242;5.974;2023-07-30T05:13:23;2.00;;;1.80;;
78581;SDS011;67878;46.242;5.974;2023-07-30T05:15:49;2.05;;;1.85;;
78581;SDS011;67878;46.242;5.974;2023-07-30T05:18:14;1.60;;;1.40;;
78581;SDS011;67878;46.242;5.974;2023-07-30T05:20:41;3.92;;;2.33;;
78581;SDS011;67878;46.242;5.974;2023-07-30T05:23:10;1.88;;;1.63;;
78581;SDS011;67878;46.242;5.974;2023-07-30T05:25:35;2.15;;;1.95;;
78581;SDS011;67878;46.242;5.974;2023-07-30T05:28:01;3.03;;;1.92;;
78581;SDS011;67878;46.242;5.974;2023-07-30T05:30:26;2.08;;;1.88;;
78581;SDS011;67878;46.242;5.974;2023-07-30T05:32:52;2.25;;;1.70;;
78581;SDS011;67878;46.242;5.974;2023-07-30T05:35:17;2.95;;;2.00;;
78581;SDS011;67878;46.242;5.974;2023-07-30T05:37:43;2.13;;;1.80;;
78581;SDS011;67878;46.242;5.974;2023-07-30T05:40:09;2.42;;;1.80;;
78581;SDS011;67878;46.242;5.974;2023-07-30T05:42:34;2.08;;;1.83;;
78581;SDS011;67878;46.242;5.974;2023-07-30T05:45:00;3.90;;;1.90;;
78581;SDS011;67878;46.242;5.974;2023-07-30T05:47:25;2.28;;;2.05;;
78581;SDS011;67878;46.242;5.974;2023-07-30T05:49:50;2.15;;;1.95;;
78581;SDS011;67878;46.242;5.974;2023-07-30T05:52:16;1.90;;;1.70;;
78581;SDS011;67878;46.242;5.974;2023-07-30T05:54:41;2.53;;;1.65;;
78581;SDS011;67878;46.242;5.974;2023-07-30T05:57:07;2.55;;;1.75;;
78581;SDS011;67878;46.242;5.974;2023-07-30T05:59:32;2.00;;;1.58;;
78581;SDS011;67878;46.242;5.974;2023-07-30T06:02:01;1.83;;;1.60;;
78581;SDS011;67878;46.242;5.974;2023-07-30T06:04:27;2.63;;;1.65;;
78581;SDS011;67878;46.242;5.974;2023-07-30T06:06:53;1.85;;;1.60;;
78581;SDS011;67878;46.242;5.974;2023-07-30T06:09:18;2.03;;;1.50;;
78581;SDS011;67878;46.242;5.974;2023-07-30T06:11:44;1.90;;;1.63;;
78581;SDS011;67878;46.242;5.974;2023-07-30T06:14:09;2.22;;;1.80;;
78581;SDS011;67878;46.242;5.974;2023-07-30T06:16:34;2.15;;;1.80;;
78581;SDS011;67878;46.242;5.974;2023-07-30T06:19:00;2.75;;;2.03;;
78581;SDS011;67878;46.242;5.974;2023-07-30T06:21:25;2.80;;;1.77;;
78581;SDS011;67878;46.242;5.974;2023-07-30T06:23:51;2.13;;;1.88;;
78581;SDS011;67878;46.242;5.974;2023-07-30T06:26:16;1.77;;;1.60;;
78581;SDS011;67878;46.242;5.974;2023-07-30T06:28:41;2.75;;;1.83;;
78581;SDS011;67878;46.242;5.974;2023-07-30T06:31:07;2.72;;;1.65;;
78581;SDS011;67878;46.242;5.974;2023-07-30T06:33:32;1.83;;;1.60;;
78581;SDS011;67878;46.242;5.974;2023-07-30T06:35:57;2.33;;;1.90;;
78581;SDS011;67878;46.242;5.974;2023-07-30T06:38:23;2.10;;;1.70;;
78581;SDS011;67878;46.242;5.974;2023-07-30T06:40:48;1.60;;;1.50;;
78581;SDS011;67878;46.242;5.974;2023-07-30T06:43:13;2.13;;;1.75;;
78581;SDS011;67878;46.242;5.974;2023-07-30T06:45:39;2.30;;;1.58;;
78581;SDS011;67878;46.242;5.974;2023-07-30T06:50:32;2.33;;;1.70;;
78581;SDS011;67878;46.242;5.974;2023-07-30T06:52:57;2.08;;;1.63;;
78581;SDS011;67878;46.242;5.974;2023-07-30T06:55:23;1.80;;;1.58;;
78581;SDS011;67878;46.242;5.974;2023-07-30T06:57:48;1.55;;;1.25;;
78581;SDS011;67878;46.242;5.974;2023-07-30T07:00:14;1.95;;;1.60;;
78581;SDS011;67878;46.242;5.974;2023-07-30T07:02:46;1.60;;;1.40;;
78581;SDS011;67878;46.242;5.974;2023-07-30T07:05:11;2.03;;;1.77;;
78581;SDS011;67878;46.242;5.974;2023-07-30T07:07:37;1.80;;;1.40;;
78581;SDS011;67878;46.242;5.974;2023-07-30T07:10:02;1.95;;;1.45;;
78581;SDS011;67878;46.242;5.974;2023-07-30T07:12:28;1.77;;;1.48;;
78581;SDS011;67878;46.242;5.974;2023-07-30T07:14:53;1.52;;;1.40;;
78581;SDS011;67878;46.242;5.974;2023-07-30T07:17:23;2.15;;;1.42;;
78581;SDS011;67878;46.242;5.974;2023-07-30T07:19:48;1.52;;;1.38;;
78581;SDS011;67878;46.242;5.974;2023-07-30T07:22:13;1.60;;;1.40;;
78581;SDS011;67878;46.242;5.974;2023-07-30T07:24:39;1.58;;;1.42;;
78581;SDS011;67878;46.242;5.974;2023-07-30T07:27:04;1.90;;;1.67;;
78581;SDS011;67878;46.242;5.974;2023-07-30T07:29:30;1.48;;;1.38;;
78581;SDS011;67878;46.242;5.974;2023-07-30T07:31:55;1.40;;;1.30;;
78581;SDS011;67878;46.242;5.974;2023-07-30T07:34:21;2.00;;;1.50;;
78581;SDS011;67878;46.242;5.974;2023-07-30T07:36:46;1.55;;;1.30;;
78581;SDS011;67878;46.242;5.974;2023-07-30T07:39:12;1.58;;;1.30;;
78581;SDS011;67878;46.242;5.974;2023-07-30T07:41:37;1.88;;;1.50;;
78581;SDS011;67878;46.242;5.974;2023-07-30T07:44:03;1.52;;;1.40;;
78581;SDS011;67878;46.242;5.974;2023-07-30T07:46:28;2.42;;;1.70;;
78581;SDS011;67878;46.242;5.974;2023-07-30T07:48:54;1.40;;;1.23;;
78581;SDS011;67878;46.242;5.974;2023-07-30T07:51:19;2.13;;;1.40;;
78581;SDS011;67878;46.242;5.974;2023-07-30T07:53:45;2.10;;;1.20;;
78581;SDS011;67878;46.242;5.974;2023-07-30T07:56:10;1.70;;;1.30;;
78581;SDS011;67878;46.242;5.974;2023-07-30T07:58:35;1.90;;;1.58;;
78581;SDS011;67878;46.242;5.974;2023-07-30T08:01:01;1.85;;;1.40;;
78581;SDS011;67878;46.242;5.974;2023-07-30T08:03:26;1.73;;;1.45;;
78581;SDS011;67878;46.242;5.974;2023-07-30T08:05:52;2.08;;;1.30;;
78581;SDS011;67878;46.242;5.974;2023-07-30T08:08:17;1.92;;;1.33;;
78581;SDS011;67878;46.242;5.974;2023-07-30T08:10:43;3.28;;;1.38;;
78581;SDS011;67878;46.242;5.974;2023-07-30T08:13:11;1.15;;;1.00;;
78581;SDS011;67878;46.242;5.974;2023-07-30T08:15:36;1.98;;;1.30;;
78581;SDS011;67878;46.242;5.974;2023-07-30T08:18:02;1.70;;;1.10;;
78581;SDS011;67878;46.242;5.974;2023-07-30T08:20:27;2.20;;;1.30;;
78581;SDS011;67878;46.242;5.974;2023-07-30T08:22:53;1.50;;;1.40;;
78581;SDS011;67878;46.242;5.974;2023-07-30T08:25:18;2.05;;;1.20;;
78581;SDS011;67878;46.242;5.974;2023-07-30T08:27:43;2.25;;;1.10;;
78581;SDS011;67878;46.242;5.974;2023-07-30T08:30:09;1.50;;;1.13;;
78581;SDS011;67878;46.242;5.974;2023-07-30T08:32:35;2.63;;;1.13;;
78581;SDS011;67878;46.242;5.974;2023-07-30T08:35:00;1.98;;;1.10;;
78581;SDS011;67878;46.242;5.974;2023-07-30T08:37:25;1.58;;;1.00;;
78581;SDS011;67878;46.242;5.974;2023-07-30T08:39:51;4.03;;;1.25;;
78581;SDS011;67878;46.242;5.974;2023-07-30T08:42:17;2.05;;;1.30;;
78581;SDS011;67878;46.242;5.974;2023-07-30T08:44:42;1.30;;;1.08;;
78581;SDS011;67878;46.242;5.974;2023-07-30T08:47:08;1.58;;;1.30;;
78581;SDS011;67878;46.242;5.974;2023-07-30T08:49:33;2.25;;;1.20;;
78581;SDS011;67878;46.242;5.974;2023-07-30T08:51:59;1.77;;;1.38;;
78581;SDS011;67878;46.242;5.974;2023-07-30T08:54:25;1.25;;;1.15;;
78581;SDS011;67878;46.242;5.974;2023-07-30T08:56:54;1.95;;;1.17;;
78581;SDS011;67878;46.242;5.974;2023-07-30T08:59:20;2.22;;;1.27;;
78581;SDS011;67878;46.242;5.974;2023-07-30T09:01:46;2.50;;;1.25;;
78581;SDS011;67878;46.242;5.974;2023-07-30T09:04:17;1.38;;;1.08;;
78581;SDS011;67878;46.242;5.974;2023-07-30T09:06:42;1.40;;;1.10;;
78581;SDS011;67878;46.242;5.974;2023-07-30T09:09:09;1.35;;;1.05;;
78581;SDS011;67878;46.242;5.974;2023-07-30T09:11:35;1.83;;;1.33;;
78581;SDS011;67878;46.242;5.974;2023-07-30T09:14:01;1.40;;;1.20;;
78581;SDS011;67878;46.242;5.974;2023-07-30T09:16:27;1.73;;;1.30;;
78581;SDS011;67878;46.242;5.974;2023-07-30T09:18:52;1.95;;;1.25;;
78581;SDS011;67878;46.242;5.974;2023-07-30T09:21:18;2.28;;;1.30;;
78581;SDS011;67878;46.242;5.974;2023-07-30T09:23:47;1.60;;;1.30;;
78581;SDS011;67878;46.242;5.974;2023-07-30T09:26:13;1.27;;;1.10;;
78581;SDS011;67878;46.242;5.974;2023-07-30T09:28:41;3.45;;;1.90;;
78581;SDS011;67878;46.242;5.974;2023-07-30T09:31:08;4.07;;;2.63;;
78581;SDS011;67878;46.242;5.974;2023-07-30T09:33:34;3.50;;;2.08;;
78581;SDS011;67878;46.242;5.974;2023-07-30T09:36:03;2.78;;;2.05;;
78581;SDS011;67878;46.242;5.974;2023-07-30T09:38:29;2.40;;;2.15;;
78581;SDS011;67878;46.242;5.974;2023-07-30T09:41:01;3.85;;;2.33;;
78581;SDS011;67878;46.242;5.974;2023-07-30T09:43:33;3.47;;;2.17;;
78581;SDS011;67878;46.242;5.974;2023-07-30T09:46:03;2.40;;;1.90;;
78581;SDS011;67878;46.242;5.974;2023-07-30T09:48:31;3.00;;;2.10;;
78581;SDS011;67878;46.242;5.974;2023-07-30T09:51:01;2.90;;;2.33;;
78581;SDS011;67878;46.242;5.974;2023-07-30T09:53:29;2.78;;;2.00;;
78581;SDS011;67878;46.242;5.974;2023-07-30T09:55:59;2.15;;;1.65;;
78581;SDS011;67878;46.242;5.974;2023-07-30T09:58:24;2.55;;;1.67;;
78581;SDS011;67878;46.242;5.974;2023-07-30T10:00:50;3.92;;;1.85;;
78581;SDS011;67878;46.242;5.974;2023-07-30T10:03:16;2.05;;;1.80;;
78581;SDS011;67878;46.242;5.974;2023-07-30T10:05:43;2.83;;;1.92;;
78581;SDS011;67878;46.242;5.974;2023-07-30T10:08:10;2.08;;;1.58;;
78581;SDS011;67878;46.242;5.974;2023-07-30T10:10:42;2.55;;;1.83;;
78581;SDS011;67878;46.242;5.974;2023-07-30T10:13:09;2.88;;;1.75;;
78581;SDS011;67878;46.242;5.974;2023-07-30T10:15:37;4.13;;;2.10;;
78581;SDS011;67878;46.242;5.974;2023-07-30T10:18:02;2.55;;;1.70;;
78581;SDS011;67878;46.242;5.974;2023-07-30T10:20:28;3.78;;;2.00;;
78581;SDS011;67878;46.242;5.974;2023-07-30T10:22:55;3.75;;;1.67;;
78581;SDS011;67878;46.242;5.974;2023-07-30T10:25:22;1.95;;;1.75;;
78581;SDS011;67878;46.242;5.974;2023-07-30T10:27:52;5.03;;;1.77;;
78581;SDS011;67878;46.242;5.974;2023-07-30T10:30:18;3.65;;;1.63;;
78581;SDS011;67878;46.242;5.974;2023-07-30T10:32:57;3.17;;;1.67;;
78581;SDS011;67878;46.242;5.974;2023-07-30T10:35:43;4.25;;;1.88;;
78581;SDS011;67878;46.242;5.974;2023-07-30T10:41:05;3.10;;;1.80;;
78581;SDS011;67878;46.242;5.974;2023-07-30T10:43:35;3.50;;;2.03;;
78581;SDS011;67878;46.242;5.974;2023-07-30T10:46:04;2.83;;;1.80;;
78581;SDS011;67878;46.242;5.974;2023-07-30T10:48:33;2.40;;;1.90;;
78581;SDS011;67878;46.242;5.974;2023-07-30T10:51:02;3.58;;;1.58;;
78581;SDS011;67878;46.242;5.974;2023-07-30T10:53:32;3.70;;;1.55;;
78581;SDS011;67878;46.242;5.974;2023-07-30T10:56:00;2.83;;;2.00;;
78581;SDS011;67878;46.242;5.974;2023-07-30T10:58:28;3.13;;;1.73;;
78581;SDS011;67878;46.242;5.974;2023-07-30T11:00:57;5.50;;;1.63;;
78581;SDS011;67878;46.242;5.974;2023-07-30T11:03:25;2.03;;;1.63;;
78581;SDS011;67878;46.242;5.974;2023-07-30T11:05:51;3.88;;;1.85;;
78581;SDS011;67878;46.242;5.974;2023-07-30T11:08:17;2.85;;;1.60;;
78581;SDS011;67878;46.242;5.974;2023-07-30T11:10:45;2.83;;;1.88;;
78581;SDS011;67878;46.242;5.974;2023-07-30T11:13:12;1.80;;;1.15;;
78581;SDS011;67878;46.242;5.974;2023-07-30T11:15:41;2.83;;;1.33;;
78581;SDS011;67878;46.242;5.974;2023-07-30T11:18:10;2.38;;;1.40;;
78581;SDS011;67878;46.242;5.974;2023-07-30T11:20:37;1.73;;;1.20;;
78581;SDS011;67878;46.242;5.974;2023-07-30T11:23:02;3.53;;;1.58;;
78581;SDS011;67878;46.242;5.974;2023-07-30T11:25:28;2.53;;;1.70;;
78581;SDS011;67878;46.242;5.974;2023-07-30T11:27:53;3.78;;;1.60;;
78581;SDS011;67878;46.242;5.974;2023-07-30T11:30:19;2.67;;;1.85;;
78581;SDS011;67878;46.242;5.974;2023-07-30T11:32:44;43.58;;;32.70;;
78581;SDS011;67878;46.242;5.974;2023-07-30T11:35:10;108.03;;;84.75;;
78581;SDS011;67878;46.242;5.974;2023-07-30T11:37:37;97.45;;;72.57;;
78581;SDS011;67878;46.242;5.974;2023-07-30T11:42:32;98.22;;;66.78;;
78581;SDS011;67878;46.242;5.974;2023-07-30T11:44:58;71.75;;;53.38;;
78581;SDS011;67878;46.242;5.974;2023-07-30T11:47:24;59.60;;;45.58;;
78581;SDS011;67878;46.242;5.974;2023-07-30T11:49:56;54.45;;;39.38;;
78581;SDS011;67878;46.242;5.974;2023-07-30T11:52:21;51.28;;;31.67;;
78581;SDS011;67878;46.242;5.974;2023-07-30T11:54:47;40.42;;;31.13;;
78581;SDS011;67878;46.242;5.974;2023-07-30T11:57:12;37.58;;;29.60;;
78581;SDS011;67878;46.242;5.974;2023-07-30T11:59:38;36.28;;;27.20;;
78581;SDS011;67878;46.242;5.974;2023-07-30T12:02:04;35.05;;;26.02;;
78581;SDS011;67878;46.242;5.974;2023-07-30T12:04:30;39.63;;;25.98;;
78581;SDS011;67878;46.242;5.974;2023-07-30T12:06:56;41.65;;;25.20;;
78581;SDS011;67878;46.242;5.974;2023-07-30T12:09:22;37.95;;;24.00;;
78581;SDS011;67878;46.242;5.974;2023-07-30T12:11:56;36.10;;;22.70;;
78581;SDS011;67878;46.242;5.974;2023-07-30T12:14:26;34.63;;;21.50;;
78581;SDS011;67878;46.242;5.974;2023-07-30T12:17:04;32.33;;;20.75;;
78581;SDS011;67878;46.242;5.974;2023-07-30T12:19:30;30.98;;;20.15;;
78581;SDS011;67878;46.242;5.974;2023-07-30T12:21:55;34.15;;;19.50;;
78581;SDS011;67878;46.242;5.974;2023-07-30T12:24:20;26.33;;;17.02;;
78581;SDS011;67878;46.242;5.974;2023-07-30T12:26:47;25.60;;;15.77;;
78581;SDS011;67878;46.242;5.974;2023-07-30T12:29:12;26.05;;;14.68;;
78581;SDS011;67878;46.242;5.974;2023-07-30T12:31:38;24.00;;;14.25;;
78581;SDS011;67878;46.242;5.974;2023-07-30T12:34:03;18.02;;;11.82;;
78581;SDS011;67878;46.242;5.974;2023-07-30T12:36:28;17.52;;;11.82;;
78581;SDS011;67878;46.242;5.974;2023-07-30T12:38:54;19.10;;;12.50;;
78581;SDS011;67878;46.242;5.974;2023-07-30T12:41:20;16.85;;;11.13;;
78581;SDS011;67878;46.242;5.974;2023-07-30T12:43:51;11.68;;;7.18;;
78581;SDS011;67878;46.242;5.974;2023-07-30T12:46:17;13.25;;;6.72;;
78581;SDS011;67878;46.242;5.974;2023-07-30T12:48:43;6.97;;;4.00;;
78581;SDS011;67878;46.242;5.974;2023-07-30T12:51:08;8.70;;;3.63;;
78581;SDS011;67878;46.242;5.974;2023-07-30T12:53:34;4.85;;;3.95;;
78581;SDS011;67878;46.242;5.974;2023-07-30T12:55:59;5.38;;;3.10;;
78581;SDS011;67878;46.242;5.974;2023-07-30T12:58:24;7.80;;;3.38;;
78581;SDS011;67878;46.242;5.974;2023-07-30T13:00:50;2.70;;;2.20;;
78581;SDS011;67878;46.242;5.974;2023-07-30T13:03:15;4.05;;;2.13;;
78581;SDS011;67878;46.242;5.974;2023-07-30T13:05:41;2.92;;;2.38;;
78581;SDS011;67878;46.242;5.974;2023-07-30T13:08:06;3.78;;;2.20;;
78581;SDS011;67878;46.242;5.974;2023-07-30T13:10:31;4.30;;;2.13;;
78581;SDS011;67878;46.242;5.974;2023-07-30T13:12:57;4.93;;;2.33;;
78581;SDS011;67878;46.242;5.974;2023-07-30T13:15:22;3.47;;;2.40;;
78581;SDS011;67878;46.242;5.974;2023-07-30T13:17:48;9.63;;;2.40;;
78581;SDS011;67878;46.242;5.974;2023-07-30T13:20:14;4.68;;;2.17;;
78581;SDS011;67878;46.242;5.974;2023-07-30T13:22:39;2.22;;;2.00;;
78581;SDS011;67878;46.242;5.974;2023-07-30T13:25:04;4.82;;;2.45;;
78581;SDS011;67878;46.242;5.974;2023-07-30T13:27:30;7.50;;;2.40;;
78581;SDS011;67878;46.242;5.974;2023-07-30T13:29:55;5.47;;;2.17;;
78581;SDS011;67878;46.242;5.974;2023-07-30T13:32:21;5.78;;;1.98;;
78581;SDS011;67878;46.242;5.974;2023-07-30T13:34:46;4.90;;;2.55;;
78581;SDS011;67878;46.242;5.974;2023-07-30T13:37:11;9.27;;;2.10;;
78581;SDS011;67878;46.242;5.974;2023-07-30T13:39:38;4.95;;;2.08;;
78581;SDS011;67878;46.242;5.974;2023-07-30T13:42:04;3.85;;;2.33;;
78581;SDS011;67878;46.242;5.974;2023-07-30T13:44:29;3.80;;;2.40;;
78581;SDS011;67878;46.242;5.974;2023-07-30T13:46:55;2.88;;;1.90;;
78581;SDS011;67878;46.242;5.974;2023-07-30T13:49:20;3.42;;;1.85;;
78581;SDS011;67878;46.242;5.974;2023-07-30T13:51:46;3.92;;;2.60;;
78581;SDS011;67878;46.242;5.974;2023-07-30T13:54:11;4.88;;;2.33;;
78581;SDS011;67878;46.242;5.974;2023-07-30T13:56:37;3.28;;;2.40;;
78581;SDS011;67878;46.242;5.974;2023-07-30T13:59:03;3.00;;;2.03;;
78581;SDS011;67878;46.242;5.974;2023-07-30T14:01:29;4.20;;;2.17;;
78581;SDS011;67878;46.242;5.974;2023-07-30T14:03:54;4.85;;;2.13;;
78581;SDS011;67878;46.242;5.974;2023-07-30T14:06:20;2.85;;;2.10;;
78581;SDS011;67878;46.242;5.974;2023-07-30T14:08:45;3.72;;;2.03;;
78581;SDS011;67878;46.242;5.974;2023-07-30T14:11:10;3.70;;;2.17;;
78581;SDS011;67878;46.242;5.974;2023-07-30T14:13:36;3.55;;;2.00;;
78581;SDS011;67878;46.242;5.974;2023-07-30T14:16:01;3.25;;;2.33;;
78581;SDS011;67878;46.242;5.974;2023-07-30T14:18:27;3.30;;;2.30;;
78581;SDS011;67878;46.242;5.974;2023-07-30T14:20:52;3.40;;;2.25;;
78581;SDS011;67878;46.242;5.974;2023-07-30T14:23:18;3.38;;;2.00;;
78581;SDS011;67878;46.242;5.974;2023-07-30T14:25:43;3.63;;;2.03;;
78581;SDS011;67878;46.242;5.974;2023-07-30T14:28:09;2.90;;;1.88;;
78581;SDS011;67878;46.242;5.974;2023-07-30T14:30:34;3.15;;;2.08;;
78581;SDS011;67878;46.242;5.974;2023-07-30T14:33:00;3.25;;;2.40;;
78581;SDS011;67878;46.242;5.974;2023-07-30T14:35:26;3.05;;;2.00;;
78581;SDS011;67878;46.242;5.974;2023-07-30T14:37:52;3.58;;;1.85;;
78581;SDS011;67878;46.242;5.974;2023-07-30T14:40:17;3.65;;;2.03;;
78581;SDS011;67878;46.242;5.974;2023-07-30T14:42:43;2.25;;;1.73;;
78581;SDS011;67878;46.242;5.974;2023-07-30T14:45:08;3.10;;;2.05;;
78581;SDS011;67878;46.242;5.974;2023-07-30T14:47:34;3.55;;;1.85;;
78581;SDS011;67878;46.242;5.974;2023-07-30T14:50:00;3.80;;;1.80;;
78581;SDS011;67878;46.242;5.974;2023-07-30T14:52:26;3.17;;;1.73;;
78581;SDS011;67878;46.242;5.974;2023-07-30T14:54:52;2.70;;;1.85;;
78581;SDS011;67878;46.242;5.974;2023-07-30T14:57:17;3.30;;;1.75;;
78581;SDS011;67878;46.242;5.974;2023-07-30T14:59:43;2.78;;;1.80;;
78581;SDS011;67878;46.242;5.974;2023-07-30T15:02:09;2.28;;;1.67;;